Time;durP1;ratioP1;P1;durP2;ratioP2;P2;SDS_P1;SDS_P2;PMS_P1;PMS_P2;Temp;Humidity;BMP_temperature;BMP_pressure;BME280_temperature;BME280_humidity;BME280_pressure;Samples;Min_cycle;Max_cycle;Signal;HPM_P1;HPM_P2
2021/08/04 00:00:21;;;;;;;;;0.00;0.00;;;;;27.06;39.67;100553.25;5056716;28;45511;-64
2021/08/04 00:02:46;;;;;;;;;0.00;0.00;;;;;27.06;39.58;100555.97;5075229;28;45465;-64
2021/08/04 00:05:12;;;;;;;;;0.00;0.00;;;;;27.06;39.69;100548.66;5075405;28;45529;-64
2021/08/04 00:07:37;;;;;;;;;0.00;0.00;;;;;27.04;40.31;100547.00;5056845;28;47039;-65
2021/08/04 00:10:04;;;;;;;;;0.00;0.00;;;;;27.06;40.28;100555.97;5075049;28;45468;-65
2021/08/04 00:12:29;;;;;;;;;0.00;0.00;;;;;27.04;40.20;100555.19;5075261;28;45408;-65
2021/08/04 00:14:56;;;;;;;;;0.00;0.00;;;;;27.05;40.19;100559.69;5075270;28;45475;-65
2021/08/04 00:17:21;;;;;;;;;0.00;0.00;;;;;27.04;39.78;100560.66;5074992;28;45409;-65
2021/08/04 00:19:46;;;;;;;;;0.00;0.00;;;;;27.03;39.96;100561.63;5074478;28;45465;-65
2021/08/04 00:22:12;;;;;;;;;0.00;0.00;;;;;27.01;39.91;100559.00;5074813;28;45415;-64
2021/08/04 00:24:37;;;;;;;;;0.00;0.00;;;;;27.03;40.20;100564.38;5056850;28;45523;-64
2021/08/04 00:27:04;;;;;;;;;0.00;0.00;;;;;27.02;40.34;100560.72;5074647;28;45330;-64
2021/08/04 00:29:29;;;;;;;;;0.00;0.00;;;;;27.03;40.38;100557.06;5056214;28;45974;-64
2021/08/04 00:31:54;;;;;;;;;0.00;0.00;;;;;27.02;39.90;100558.00;5056726;28;45461;-65
2021/08/04 00:34:20;;;;;;;;;0.00;0.00;;;;;27.02;40.28;100562.59;5075650;28;45403;-65
2021/08/04 00:36:45;;;;;;;;;0.00;0.00;;;;;27.03;40.49;100558.91;5078241;28;45592;-65
2021/08/04 00:39:10;;;;;;;;;0.00;0.00;;;;;27.02;39.96;100562.59;5076391;28;45577;-65
2021/08/04 00:41:40;;;;;;;;;0.00;0.00;;;;;27.02;40.22;100562.59;5078413;28;44767;-65
2021/08/04 00:44:06;;;;;;;;;0.00;0.00;;;;;27.01;39.90;100555.38;5078409;28;45421;-65
2021/08/04 00:46:32;;;;;;;;;0.00;0.00;;;;;27.01;40.01;100558.13;5077716;28;45997;-65
2021/08/04 00:48:58;;;;;;;;;0.00;0.00;;;;;27.01;40.00;100555.38;5059660;28;45286;-65
2021/08/04 00:51:23;;;;;;;;;0.00;0.00;;;;;27.01;40.44;100555.38;5078110;28;45517;-65
2021/08/04 00:53:48;;;;;;;;;0.00;0.00;;;;;26.99;40.46;100546.41;5078306;28;45425;-65
2021/08/04 00:56:14;;;;;;;;;0.00;0.00;;;;;26.99;40.29;100543.69;5077984;28;45576;-65
2021/08/04 00:58:41;;;;;;;;;0.00;0.00;;;;;26.99;39.90;100540.94;5059666;28;45496;-65
2021/08/04 01:01:34;;;;;;;;;0.00;0.00;;;;;26.99;40.59;100544.53;5078199;28;45701;-65
2021/08/04 01:04:06;;;;;;;;;0.00;0.00;;;;;26.99;40.17;100540.94;5073970;27;45453;-64
2021/08/04 01:07:05;;;;;;;;;0.00;0.00;;;;;26.99;40.10;100538.22;5056463;28;45980;-64
2021/08/04 01:09:46;;;;;;;;;0.00;0.00;;;;;26.98;40.35;100528.25;5056091;28;44945;-64
2021/08/04 01:12:18;;;;;;;;;0.00;0.00;;;;;26.97;40.03;100532.84;5066801;28;45424;-64
2021/08/04 01:14:46;;;;;;;;;0.00;0.00;;;;;26.98;39.98;100533.72;5068845;28;45580;-64
2021/08/04 01:17:11;;;;;;;;;0.00;0.00;;;;;26.94;39.87;100523.00;5076196;28;46019;-64
2021/08/04 01:20:01;;;;;;;;;0.00;0.00;;;;;26.97;40.63;100531.97;5063630;28;45458;-64
2021/08/04 01:22:41;;;;;;;;;0.00;0.00;;;;;26.96;40.27;100530.19;5055328;28;45512;-65
2021/08/04 01:25:13;;;;;;;;;0.00;0.00;;;;;26.96;40.72;100532.91;5060935;28;45491;-65
2021/08/04 01:28:27;;;;;;;;;0.00;0.00;;;;;26.94;40.63;100527.53;5074451;28;45579;-65
2021/08/04 01:30:58;;;;;;;;;0.00;0.00;;;;;26.94;40.18;100528.44;4993405;28;45565;-65
2021/08/04 01:33:26;;;;;;;;;0.00;0.00;;;;;26.93;40.29;100531.25;4977300;28;45481;-65
2021/08/04 01:35:53;;;;;;;;;0.00;0.00;;;;;26.92;40.05;100524.03;4993818;28;45757;-64
2021/08/04 01:38:19;;;;;;;;;0.00;0.00;;;;;26.92;40.04;100524.94;4992510;28;46213;-64
2021/08/04 01:40:48;;;;;;;;;0.00;0.00;;;;;26.91;40.16;100512.22;4993746;28;45920;-64
2021/08/04 01:43:16;;;;;;;;;0.00;0.00;;;;;26.90;40.18;100515.91;4986320;28;45541;-64
2021/08/04 01:45:42;;;;;;;;;0.00;0.00;;;;;26.90;40.10;100518.66;4985497;28;45657;-64
2021/08/04 01:48:08;;;;;;;;;0.00;0.00;;;;;26.89;40.42;100516.91;4993433;28;46282;-64
2021/08/04 01:50:35;;;;;;;;;0.00;0.00;;;;;26.90;40.01;100521.38;4993431;28;45494;-64
2021/08/04 01:53:01;;;;;;;;;0.00;0.00;;;;;26.89;40.20;100514.16;4990862;28;45420;-64
2021/08/04 01:55:29;;;;;;;;;0.00;0.00;;;;;26.89;40.11;100511.44;4992471;28;45452;-64
2021/08/04 01:57:55;;;;;;;;;0.00;0.00;;;;;26.89;39.93;100514.16;4992366;28;46256;-64
2021/08/04 02:00:20;;;;;;;;;0.00;0.00;;;;;26.89;40.17;100513.31;4992023;28;45454;-64
2021/08/04 02:02:46;;;;;;;;;0.00;0.00;;;;;26.87;40.17;100505.19;4990495;28;45498;-64
2021/08/04 02:05:11;;;;;;;;;0.00;0.00;;;;;26.88;40.69;100501.47;4991488;28;45626;-64
2021/08/04 02:07:58;;;;;;;;;0.00;0.00;;;;;26.87;40.22;100505.19;5019381;28;45425;-64
2021/08/04 02:10:31;;;;;;;;;0.00;0.00;;;;;26.87;40.18;100510.66;5052661;28;45451;-65
2021/08/04 02:13:02;;;;;;;;;0.00;0.00;;;;;26.86;40.70;100506.16;5052391;28;45523;-65
2021/08/04 02:15:33;;;;;;;;;0.00;0.00;;;;;26.87;40.46;100501.59;5053996;28;45724;-64
2021/08/04 02:18:07;;;;;;;;;0.00;0.00;;;;;26.84;40.66;100497.16;5051466;28;45520;-64
2021/08/04 02:20:37;;;;;;;;;0.00;0.00;;;;;26.86;40.68;100506.16;5055152;28;45436;-64
2021/08/04 02:23:19;;;;;;;;;0.00;0.00;;;;;26.86;40.29;100500.69;5053510;28;45420;-64
2021/08/04 02:25:50;;;;;;;;;0.00;0.00;;;;;26.85;40.59;100500.81;5051927;28;45392;-64
2021/08/04 02:28:21;;;;;;;;;0.00;0.00;;;;;26.85;40.23;100496.22;5052318;28;45561;-65
2021/08/04 02:30:48;;;;;;;;;0.00;0.00;;;;;26.85;40.12;100496.22;5055325;28;45462;-65
2021/08/04 02:33:15;;;;;;;;;0.00;0.00;;;;;26.84;40.50;100491.72;5055307;28;45443;-65
2021/08/04 02:35:40;;;;;;;;;0.00;0.00;;;;;26.84;40.59;100477.19;5050404;28;45420;-65
2021/08/04 02:38:06;;;;;;;;;0.00;0.00;;;;;26.85;40.18;100478.97;5056920;28;45547;-65
2021/08/04 02:40:31;;;;;;;;;0.00;0.00;;;;;26.82;40.34;100479.13;5063326;28;45473;-65
2021/08/04 02:42:59;;;;;;;;;0.00;0.00;;;;;26.84;40.23;100482.66;5065983;28;45469;-65
2021/08/04 02:45:25;;;;;;;;;0.00;0.00;;;;;26.83;40.69;100479.06;5058355;28;45418;-65
2021/08/04 02:47:52;;;;;;;;;0.00;0.00;;;;;26.82;40.61;100468.22;5054250;28;45487;-65
2021/08/04 02:50:21;;;;;;;;;0.00;0.00;;;;;26.84;40.47;100482.66;5054517;28;45429;-65
2021/08/04 02:52:48;;;;;;;;;0.00;0.00;;;;;26.80;40.53;100476.50;5044505;28;45531;-65
2021/08/04 02:55:14;;;;;;;;;0.00;0.00;;;;;26.82;40.65;100488.19;5044406;28;45442;-65
2021/08/04 02:57:39;;;;;;;;;0.00;0.00;;;;;26.82;40.85;100479.13;5069635;28;46426;-65
2021/08/04 03:00:05;;;;;;;;;0.00;0.00;;;;;26.82;40.53;100484.59;5073806;28;45382;-65
2021/08/04 03:02:32;;;;;;;;;0.00;0.00;;;;;26.80;40.48;100476.50;5073126;27;45448;-65
2021/08/04 03:04:58;;;;;;;;;0.00;0.00;;;;;26.81;40.41;100480.13;5075099;28;45433;-65
2021/08/04 03:07:23;;;;;;;;;0.00;0.00;;;;;26.79;40.61;100477.47;5056973;28;45404;-65
2021/08/04 03:09:48;;;;;;;;;0.00;0.00;;;;;26.73;40.71;100467.78;5074001;28;45488;-65
2021/08/04 03:12:14;;;;;;;;;0.00;0.00;;;;;26.79;40.55;100474.75;5049423;28;45586;-65
2021/08/04 03:14:39;;;;;;;;;0.00;0.00;;;;;26.80;40.25;100481.06;5074941;28;45742;-65
2021/08/04 03:17:05;;;;;;;;;0.00;0.00;;;;;26.78;40.22;100478.44;5073874;28;46849;-65
2021/08/04 03:19:30;;;;;;;;;0.00;0.00;;;;;26.77;40.23;100476.69;5055081;28;45560;-65
2021/08/04 03:21:55;;;;;;;;;0.00;0.00;;;;;26.76;40.63;100477.63;5063684;28;45709;-65
2021/08/04 03:24:21;;;;;;;;;0.00;0.00;;;;;26.76;40.84;100469.44;5070314;28;45451;-65
2021/08/04 03:26:46;;;;;;;;;0.00;0.00;;;;;26.77;40.56;100464.91;5058075;28;46115;-65
2021/08/04 03:29:18;;;;;;;;;0.00;0.00;;;;;26.75;40.36;100464.97;5074432;28;45650;-65
2021/08/04 03:31:43;;;;;;;;;0.00;0.00;;;;;26.75;40.39;100456.78;5073133;28;45392;-65
2021/08/04 03:34:09;;;;;;;;;0.00;0.00;;;;;26.73;40.48;100447.81;5074840;28;45810;-65
2021/08/04 03:36:34;;;;;;;;;0.00;0.00;;;;;26.74;40.25;100449.56;5074544;28;46540;-65
2021/08/04 03:38:59;;;;;;;;;0.00;0.00;;;;;26.73;40.54;100453.28;5073405;28;45483;-65
2021/08/04 03:41:25;;;;;;;;;0.00;0.00;;;;;26.73;40.71;100453.28;5074690;28;45408;-65
2021/08/04 03:43:50;;;;;;;;;0.00;0.00;;;;;26.71;40.80;100449.75;5074055;28;45543;-65
2021/08/04 03:46:15;;;;;;;;;0.00;0.00;;;;;26.72;40.32;100456.94;5072037;28;46095;-65
2021/08/04 03:48:42;;;;;;;;;0.00;0.00;;;;;26.71;40.75;100460.66;5066487;28;45458;-65
2021/08/04 03:51:07;;;;;;;;;0.00;0.00;;;;;26.71;40.56;100466.13;5053999;28;45445;-65
2021/08/04 03:53:33;;;;;;;;;0.00;0.00;;;;;26.70;40.48;100459.78;5053815;28;45500;-65
2021/08/04 03:55:58;;;;;;;;;0.00;0.00;;;;;26.71;40.48;100466.13;5053799;28;45814;-65
2021/08/04 03:58:24;;;;;;;;;0.00;0.00;;;;;26.70;40.68;100467.06;5054069;28;45529;-65
2021/08/04 04:00:49;;;;;;;;;0.00;0.00;;;;;26.69;40.41;100473.53;5053226;28;45455;-65
2021/08/04 04:03:14;;;;;;;;;0.00;0.00;;;;;26.69;40.87;100468.06;5053491;28;45492;-65
2021/08/04 04:05:40;;;;;;;;;0.00;0.00;;;;;26.69;40.45;100477.13;5051572;28;46975;-65
2021/08/04 04:08:05;;;;;;;;;0.00;0.00;;;;;26.68;40.95;100472.66;5068682;28;45393;-65
2021/08/04 04:10:30;;;;;;;;;0.00;0.00;;;;;26.69;40.38;100468.06;5073379;28;45430;-65
2021/08/04 04:12:57;;;;;;;;;0.00;0.00;;;;;26.69;40.49;100478.97;5071327;28;45411;-65
2021/08/04 04:15:22;;;;;;;;;0.00;0.00;;;;;26.69;40.47;100479.84;5054039;28;45673;-66
2021/08/04 04:17:48;;;;;;;;;0.00;0.00;;;;;26.68;40.88;100479.94;5053960;28;45421;-65
2021/08/04 04:20:13;;;;;;;;;0.00;0.00;;;;;26.68;40.84;100483.56;5054124;28;45574;-65
2021/08/04 04:22:43;;;;;;;;;0.00;0.00;;;;;26.67;41.09;100475.47;5053484;28;45927;-65
2021/08/04 04:25:12;;;;;;;;;0.00;0.00;;;;;26.68;40.42;100474.47;5053005;28;45477;-65
2021/08/04 04:27:38;;;;;;;;;0.00;0.00;;;;;26.67;40.76;100464.53;5054581;28;45458;-65
2021/08/04 04:30:05;;;;;;;;;0.00;0.00;;;;;26.66;40.81;100460.94;5054476;28;45513;-65
2021/08/04 04:32:30;;;;;;;;;0.00;0.00;;;;;26.67;40.85;100456.34;5055270;28;45536;-65
2021/08/04 04:34:55;;;;;;;;;0.00;0.00;;;;;26.65;40.47;100455.56;5074542;28;45503;-65
2021/08/04 04:37:21;;;;;;;;;0.00;0.00;;;;;26.63;40.74;100452.91;5056343;28;45490;-65
2021/08/04 04:39:46;;;;;;;;;0.00;0.00;;;;;26.64;40.38;100448.34;5071592;28;45477;-65
2021/08/04 04:42:11;;;;;;;;;0.00;0.00;;;;;26.63;41.00;100454.78;5074661;28;45418;-65
2021/08/04 04:44:37;;;;;;;;;0.00;0.00;;;;;26.65;40.96;100461.03;5068338;28;45469;-65
2021/08/04 04:47:02;;;;;;;;;0.00;0.00;;;;;26.63;40.95;100452.91;5053609;28;45453;-66
2021/08/04 04:49:29;;;;;;;;;0.00;0.00;;;;;26.64;41.01;100456.53;5073980;28;45499;-65
2021/08/04 04:51:54;;;;;;;;;0.00;0.00;;;;;26.63;40.45;100460.22;5036702;28;45427;-65
2021/08/04 04:54:19;;;;;;;;;0.00;0.00;;;;;26.63;40.63;100457.50;5054297;28;45408;-65
2021/08/04 04:56:45;;;;;;;;;0.00;0.00;;;;;26.62;40.66;100458.47;5054323;28;45493;-65
2021/08/04 04:59:10;;;;;;;;;0.00;0.00;;;;;26.63;40.93;100468.41;5060078;28;45416;-65
2021/08/04 05:01:37;;;;;;;;;0.00;0.00;;;;;26.63;40.93;100468.41;5074572;28;45415;-65
2021/08/04 05:04:02;;;;;;;;;0.00;0.00;;;;;26.63;40.59;100465.69;5072233;28;46705;-65
2021/08/04 05:06:30;;;;;;;;;0.00;0.00;;;;;26.63;40.93;100479.31;5074310;28;45681;-65
2021/08/04 05:08:55;;;;;;;;;0.00;0.00;;;;;26.63;40.91;100479.31;5064867;28;45537;-65
2021/08/04 05:11:20;;;;;;;;;0.00;0.00;;;;;26.61;40.60;100475.81;5071748;28;45514;-65
2021/08/04 05:13:47;;;;;;;;;0.00;0.00;;;;;26.63;40.88;100480.19;5057470;28;45413;-65
2021/08/04 05:16:12;;;;;;;;;0.00;0.00;;;;;26.64;40.48;100483.78;5059337;28;45594;-65
2021/08/04 05:18:38;;;;;;;;;0.00;0.00;;;;;26.63;40.94;100479.31;5074023;28;45720;-65
2021/08/04 05:21:03;;;;;;;;;0.00;0.00;;;;;26.64;40.41;100476.53;5076000;28;45510;-65
2021/08/04 05:23:28;;;;;;;;;0.00;0.00;;;;;26.64;40.75;100472.88;5077547;28;45530;-65
2021/08/04 05:25:55;;;;;;;;;0.00;0.00;;;;;26.63;40.30;100471.16;5077471;28;45436;-65
2021/08/04 05:28:20;;;;;;;;;0.00;0.00;;;;;26.64;40.50;100481.06;5077540;28;45470;-65
2021/08/04 05:30:46;;;;;;;;;0.00;0.00;;;;;26.64;40.77;100479.25;5077863;28;45315;-65
2021/08/04 05:33:11;;;;;;;;;0.00;0.00;;;;;26.65;40.34;100482.84;5075117;28;45464;-65
2021/08/04 05:35:36;;;;;;;;;0.00;0.00;;;;;26.66;40.71;100476.41;5077494;28;45345;-65
2021/08/04 05:38:03;;;;;;;;;0.00;0.00;;;;;26.65;40.55;100467.34;5074912;28;45447;-64
2021/08/04 05:40:28;;;;;;;;;0.00;0.00;;;;;26.66;40.84;100470.94;5077246;28;45427;-64
2021/08/04 05:42:54;;;;;;;;;0.00;0.00;;;;;26.66;40.65;100470.94;5075336;28;45997;-65
2021/08/04 05:45:19;;;;;;;;;0.00;0.00;;;;;26.68;40.75;100471.75;5075399;28;45487;-64
2021/08/04 05:47:44;;;;;;;;;0.00;0.00;;;;;26.68;40.88;100482.66;5075596;28;45488;-64
2021/08/04 05:50:11;;;;;;;;;0.00;0.00;;;;;26.70;40.45;100478.00;5075365;28;45421;-64
2021/08/04 05:52:36;;;;;;;;;0.00;0.00;;;;;26.69;40.95;100478.97;5058884;28;46234;-64
2021/08/04 05:55:02;;;;;;;;;0.00;0.00;;;;;26.70;40.77;100486.19;5077017;28;45456;-64
2021/08/04 05:57:27;;;;;;;;;0.00;0.00;;;;;26.69;40.34;100481.69;5076989;28;45476;-64
2021/08/04 05:59:53;;;;;;;;;0.00;0.00;;;;;26.70;40.81;100492.53;5048923;28;45580;-64
2021/08/04 06:02:19;;;;;;;;;0.00;0.00;;;;;26.72;40.74;100490.59;5056180;28;45904;-64
2021/08/04 06:04:45;;;;;;;;;0.00;0.00;;;;;26.71;40.66;100493.41;5056189;28;45533;-64
2021/08/04 06:07:10;;;;;;;;;0.00;0.00;;;;;26.73;40.53;100495.06;5059707;28;45423;-64
2021/08/04 06:09:35;;;;;;;;;0.00;0.00;;;;;26.72;40.78;100484.25;5076820;28;45552;-64
2021/08/04 06:12:01;;;;;;;;;0.00;0.00;;;;;26.74;40.51;100485.03;5074479;28;46119;-64
2021/08/04 06:14:26;;;;;;;;;0.00;0.00;;;;;26.76;40.72;100485.81;5068317;28;45594;-64
2021/08/04 06:16:52;;;;;;;;;0.00;0.00;;;;;26.76;40.36;100488.53;5070638;28;45540;-64
2021/08/04 06:19:17;;;;;;;;;0.00;0.00;;;;;26.77;40.47;100482.13;5076721;28;45437;-64
2021/08/04 06:21:42;;;;;;;;;0.00;0.00;;;;;26.79;40.36;100482.06;5057419;28;46245;-64
2021/08/04 06:24:08;;;;;;;;;0.00;0.00;;;;;26.78;40.15;100474.81;5076390;28;45373;-64
2021/08/04 06:26:34;;;;;;;;;0.00;0.00;;;;;26.79;40.25;100480.19;5076157;28;45407;-64
2021/08/04 06:28:59;;;;;;;;;0.00;0.00;;;;;26.78;40.17;100472.09;5074912;28;45848;-65
2021/08/04 06:31:25;;;;;;;;;0.00;0.00;;;;;26.79;40.68;100480.19;5072822;28;45495;-64
2021/08/04 06:33:50;;;;;;;;;0.00;0.00;;;;;26.80;40.51;100475.63;5075305;28;45555;-64
2021/08/04 06:36:15;;;;;;;;;0.00;0.00;;;;;26.81;40.15;100486.44;5074070;28;45447;-64
2021/08/04 06:38:41;;;;;;;;;0.00;0.00;;;;;26.82;40.34;100490.91;5074843;28;45456;-64
2021/08/04 06:41:06;;;;;;;;;0.00;0.00;;;;;26.82;40.21;100485.47;5075925;28;46929;-64
2021/08/04 06:43:32;;;;;;;;;0.00;0.00;;;;;26.84;40.49;100488.09;5075930;28;45651;-64
2021/08/04 06:45:57;;;;;;;;;0.00;0.00;;;;;26.84;40.04;100488.97;5076243;28;45517;-64
2021/08/04 06:48:22;;;;;;;;;0.00;0.00;;;;;26.85;40.52;100487.16;5076257;28;45436;-64
2021/08/04 06:50:48;;;;;;;;;0.00;0.00;;;;;26.86;40.36;100484.31;5074127;28;45421;-64
2021/08/04 06:53:20;;;;;;;;;0.00;0.00;;;;;26.86;40.32;100481.59;5074257;28;45863;-65
2021/08/04 06:55:45;;;;;;;;;0.00;0.00;;;;;26.87;40.24;100486.09;5057698;28;45668;-64
2021/08/04 06:58:11;;;;;;;;;0.00;0.00;;;;;26.87;40.72;100486.09;5076073;28;45476;-64
2021/08/04 07:00:36;;;;;;;;;0.00;0.00;;;;;26.87;40.64;100480.63;5073763;28;46155;-64
2021/08/04 07:03:10;;;;;;;;;0.67;0.67;;;;;26.86;39.36;100489.78;5071683;27;44929;-67
2021/08/04 07:05:35;;;;;;;;;2.67;2.67;;;;;26.71;39.58;100487.94;5062982;28;45399;-67
2021/08/04 07:08:07;;;;;;;;;5.33;5.33;;;;;26.57;38.72;100496.88;5072999;28;45462;-66
2021/08/04 07:10:33;;;;;;;;;6.00;5.00;;;;;26.43;39.83;100494.06;5073531;28;46394;-66
2021/08/04 07:12:58;;;;;;;;;2.33;2.33;;;;;26.35;39.11;100497.19;5072256;28;45806;-66
2021/08/04 07:15:24;;;;;;;;;2.67;2.67;;;;;26.28;39.44;100501.25;5072566;28;45377;-66
2021/08/04 07:17:50;;;;;;;;;6.33;6.00;;;;;26.24;39.39;100499.63;5073983;28;45430;-66
2021/08/04 07:20:19;;;;;;;;;4.00;4.00;;;;;26.21;39.47;100497.97;5056979;28;46090;-66
2021/08/04 07:22:45;;;;;;;;;4.00;4.00;;;;;26.15;39.19;100493.72;5054105;28;45401;-66
2021/08/04 07:25:12;;;;;;;;;3.67;3.33;;;;;26.12;39.35;100499.34;5053639;28;45436;-66
2021/08/04 07:27:39;;;;;;;;;5.67;5.67;;;;;26.07;38.83;100498.72;5072216;28;45460;-67
2021/08/04 07:30:07;;;;;;;;;2.67;2.67;;;;;26.03;38.86;100494.38;5070650;28;45527;-66
2021/08/04 07:32:39;;;;;;;;;3.00;3.00;;;;;26.01;39.56;100493.59;5071088;27;45508;-67
2021/08/04 07:35:05;;;;;;;;;4.33;4.33;;;;;25.97;39.72;100491.13;5067420;28;45792;-66
2021/08/04 07:37:33;;;;;;;;;2.67;2.67;;;;;25.96;39.17;100494.84;5074472;27;45477;-66
2021/08/04 07:40:05;;;;;;;;;6.00;4.00;;;;;25.91;39.25;100489.59;5069972;28;46103;-67
2021/08/04 07:42:30;;;;;;;;;4.33;4.33;;;;;25.90;39.09;100490.59;5074406;28;45451;-66
2021/08/04 07:44:56;;;;;;;;;5.00;3.00;;;;;25.87;38.97;100501.59;5063185;28;46261;-66
2021/08/04 07:47:22;;;;;;;;;5.00;5.00;;;;;25.83;38.66;100505.44;5075210;28;45468;-68
2021/08/04 07:49:47;;;;;;;;;4.00;4.00;;;;;25.80;38.68;100490.16;5055990;28;47025;-67
2021/08/04 07:52:12;;;;;;;;;3.00;3.00;;;;;25.78;38.73;100502.13;5069114;28;45561;-67
2021/08/04 07:54:39;;;;;;;;;3.33;3.33;;;;;25.75;38.82;100503.13;5074544;27;45687;-67
2021/08/04 07:57:05;;;;;;;;;1.00;1.00;;;;;25.73;38.82;100500.50;5074934;28;45363;-67
2021/08/04 07:59:30;;;;;;;;;5.00;5.00;;;;;25.73;38.64;100502.34;5074160;28;45498;-67
2021/08/04 08:01:57;;;;;;;;;4.00;3.67;;;;;25.67;38.40;100498.13;5074470;27;45413;-67
2021/08/04 08:04:22;;;;;;;;;4.33;4.33;;;;;25.64;38.39;100500.97;5074288;28;45407;-67
2021/08/04 08:06:48;;;;;;;;;4.00;4.00;;;;;25.62;38.75;100502.91;5074586;28;45615;-67
2021/08/04 08:09:19;;;;;;;;;4.00;4.00;;;;;25.59;38.60;100497.59;5068515;28;45455;-67
2021/08/04 08:11:44;;;;;;;;;6.33;6.33;;;;;25.57;38.47;100499.53;5094216;27;45455;-67
2021/08/04 08:14:11;;;;;;;;;3.00;3.00;;;;;25.58;38.59;100497.72;5095129;27;45423;-67
2021/08/04 08:16:36;;;;;;;;;3.33;3.33;;;;;25.57;38.79;100499.53;5094846;27;45379;-67
2021/08/04 08:19:02;;;;;;;;;3.00;3.00;;;;;25.58;38.45;100495.00;5094418;27;45437;-67
2021/08/04 08:21:27;;;;;;;;;3.33;2.67;;;;;25.58;38.65;100497.72;5093289;27;45383;-67
2021/08/04 08:23:53;;;;;;;;;2.00;1.67;;;;;25.60;38.55;100490.34;5065473;28;45445;-67
2021/08/04 08:26:23;;;;;;;;;3.67;3.67;;;;;25.62;38.42;100488.41;5059298;27;45764;-67
2021/08/04 08:28:49;;;;;;;;;3.67;3.67;;;;;25.63;38.52;100490.16;5067115;28;45808;-67
2021/08/04 08:31:15;;;;;;;;;1.33;1.33;;;;;25.65;38.43;100491.88;5074376;28;45783;-67
2021/08/04 08:33:40;;;;;;;;;4.33;2.00;;;;;25.69;38.48;100493.47;5074014;28;45417;-66
2021/08/04 08:36:06;;;;;;;;;6.00;5.00;;;;;25.74;38.10;100494.09;5074443;28;45392;-67
2021/08/04 08:38:37;;;;;;;;;6.33;6.00;;;;;25.75;38.18;100493.13;5072200;28;46171;-66
2021/08/04 08:41:06;;;;;;;;;7.67;4.67;;;;;25.77;37.69;100494.88;5073454;28;45465;-66
2021/08/04 08:43:33;;;;;;;;;3.67;3.67;;;;;25.81;38.05;100489.19;5074401;27;45499;-67
2021/08/04 08:46:01;;;;;;;;;4.33;4.33;;;;;25.84;37.82;100490.88;5074015;28;45771;-67
2021/08/04 08:48:27;;;;;;;;;2.00;2.00;;;;;25.86;37.98;100495.28;5073570;28;45461;-67
2021/08/04 08:50:53;;;;;;;;;3.33;3.00;;;;;25.86;38.37;100491.69;5073671;28;45473;-67
2021/08/04 08:53:21;;;;;;;;;3.33;3.33;;;;;25.89;38.03;100494.22;5073989;28;44943;-67
2021/08/04 08:55:47;;;;;;;;;3.00;3.00;;;;;25.91;37.59;100486.88;5075578;28;45425;-67
2021/08/04 08:58:12;;;;;;;;;4.00;2.67;;;;;25.93;37.79;100493.13;5077003;28;45358;-67
2021/08/04 09:00:39;;;;;;;;;3.00;3.00;;;;;25.94;37.46;100482.16;5079690;27;45431;-67
2021/08/04 09:03:04;;;;;;;;;3.33;3.00;;;;;25.94;37.57;100482.16;5097272;27;45454;-67
2021/08/04 09:05:47;;;;;;;;;4.33;4.33;;;;;25.96;37.72;100490.25;5097683;27;45487;-67
2021/08/04 09:08:30;;;;;;;;;2.33;2.33;;;;;25.98;37.36;100488.31;5071318;27;45383;-67
2021/08/04 09:10:57;;;;;;;;;3.67;3.67;;;;;25.99;37.50;100490.06;5056727;28;45409;-67
2021/08/04 09:13:34;;;;;;;;;6.33;5.67;;;;;25.99;37.84;100491.94;5059862;28;45796;-67
2021/08/04 09:16:06;;;;;;;;;5.67;5.67;;;;;25.99;37.28;100487.34;5067674;28;45417;-67
2021/08/04 09:18:51;;;;;;;;;5.67;4.00;;;;;25.99;37.42;100483.75;5087558;27;46163;-67
2021/08/04 09:21:17;;;;;;;;;4.33;4.00;;;;;26.00;37.41;100485.53;5056689;28;45490;-67
2021/08/04 09:23:51;;;;;;;;;3.00;3.00;;;;;26.04;37.03;100484.41;5038655;28;45376;-67
2021/08/04 09:26:19;;;;;;;;;4.67;4.67;;;;;26.05;36.98;100478.84;5061399;28;45414;-67
2021/08/04 09:28:58;;;;;;;;;6.33;5.00;;;;;26.09;36.69;100479.56;5054860;28;47054;-67
2021/08/04 09:31:45;;;;;;;;;2.67;2.67;;;;;26.09;36.81;100480.44;5060486;28;45805;-67
2021/08/04 09:34:39;;;;;;;;;4.67;4.67;;;;;26.11;36.37;100473.06;5076658;28;45495;-67
2021/08/04 09:37:07;;;;;;;;;4.00;2.33;;;;;26.12;36.71;100473.97;5064172;28;46702;-67
2021/08/04 09:39:34;;;;;;;;;1.67;1.67;;;;;26.14;36.80;100461.13;5071580;28;46230;-67
2021/08/04 09:42:01;;;;;;;;;3.00;3.00;;;;;26.20;36.98;100454.41;5076732;28;45442;-66
2021/08/04 09:44:26;;;;;;;;;3.67;3.67;;;;;26.25;36.80;100455.94;5058476;28;45489;-67
2021/08/04 09:47:11;;;;;;;;;2.67;2.67;;;;;26.29;36.56;100453.91;5067594;28;45461;-67
2021/08/04 09:49:38;;;;;;;;;3.67;3.00;;;;;26.30;36.23;100456.56;5060967;28;46220;-66
2021/08/04 09:52:04;;;;;;;;;5.00;4.00;;;;;26.33;36.38;100450.06;5076520;28;45859;-66
2021/08/04 09:54:39;;;;;;;;;2.00;2.00;;;;;26.35;36.58;100459.03;5076630;28;45507;-66
2021/08/04 09:57:06;;;;;;;;;3.00;2.00;;;;;26.36;36.40;100449.91;5077301;28;45705;-66
2021/08/04 09:59:31;;;;;;;;;4.00;4.00;;;;;26.35;36.08;100453.56;5077070;28;45430;-66
2021/08/04 10:01:59;;;;;;;;;2.67;2.67;;;;;26.39;36.17;100443.38;5076712;27;45382;-66
2021/08/04 10:04:24;;;;;;;;;2.67;2.00;;;;;26.38;36.44;100447.97;5076264;28;45428;-66
2021/08/04 10:06:50;;;;;;;;;3.67;3.67;;;;;26.38;36.48;100441.59;5076109;28;45690;-66
2021/08/04 10:09:18;;;;;;;;;5.33;4.33;;;;;26.42;36.62;100449.56;5076675;28;46172;-66
2021/08/04 10:11:46;;;;;;;;;3.00;3.00;;;;;26.44;36.03;100446.72;5076680;28;45596;-66
2021/08/04 10:14:16;;;;;;;;;4.67;3.67;;;;;26.45;36.16;100446.63;5058278;28;45426;-66
2021/08/04 10:16:42;;;;;;;;;4.00;2.67;;;;;26.48;36.12;100438.28;5076614;28;45374;-66
2021/08/04 10:19:07;;;;;;;;;2.33;2.33;;;;;26.48;36.05;100443.75;5076081;28;45459;-66
2021/08/04 10:21:35;;;;;;;;;3.33;3.33;;;;;26.51;35.76;100437.22;5057500;28;45339;-66
2021/08/04 10:24:01;;;;;;;;;4.33;3.67;;;;;26.51;35.50;100429.91;5076465;28;45479;-67
2021/08/04 10:26:27;;;;;;;;;4.00;4.00;;;;;26.44;35.72;100425.81;5076308;28;45413;-66
2021/08/04 10:28:57;;;;;;;;;1.33;1.33;;;;;26.41;35.74;100425.97;5075425;28;46178;-66
2021/08/04 10:31:23;;;;;;;;;2.67;2.00;;;;;26.42;35.34;100438.66;5074842;28;45636;-66
2021/08/04 10:33:49;;;;;;;;;3.33;3.00;;;;;26.43;35.48;100439.50;5075775;28;45488;-67
2021/08/04 10:36:17;;;;;;;;;2.00;2.00;;;;;26.45;35.88;100427.53;5079908;28;45393;-66
2021/08/04 10:38:45;;;;;;;;;1.67;1.67;;;;;26.51;36.14;100426.31;5077603;28;46299;-66
2021/08/04 10:41:16;;;;;;;;;5.00;4.67;;;;;26.54;35.73;100427.03;5077701;28;45529;-67
2021/08/04 10:43:49;;;;;;;;;4.33;4.33;;;;;26.57;36.41;100430.56;5076942;28;45437;-66
2021/08/04 10:46:34;;;;;;;;;4.00;4.00;;;;;26.61;36.57;100435.75;5075811;28;45764;-66
2021/08/04 10:49:05;;;;;;;;;4.00;2.67;;;;;26.62;36.00;100433.91;5075330;28;45448;-65
2021/08/04 10:51:43;;;;;;;;;2.67;2.67;;;;;26.61;35.60;100432.16;5075710;28;45704;-65
2021/08/04 10:54:15;;;;;;;;;4.00;4.00;;;;;26.61;36.12;100433.03;5075560;28;45471;-65
2021/08/04 10:56:43;;;;;;;;;3.00;3.00;;;;;26.63;36.14;100435.69;5075646;28;45526;-66
2021/08/04 10:59:09;;;;;;;;;3.00;3.00;;;;;26.63;35.63;100431.09;5075133;28;45901;-66
2021/08/04 11:01:41;;;;;;;;;4.00;4.00;;;;;26.63;35.28;100441.13;5075719;28;45421;-66
2021/08/04 11:04:08;;;;;;;;;6.33;5.33;;;;;26.63;35.71;100435.69;5075396;28;44810;-67
2021/08/04 11:06:34;;;;;;;;;3.33;3.33;;;;;26.64;35.31;100434.69;5075649;28;45700;-67
2021/08/04 11:09:12;;;;;;;;;2.67;2.67;;;;;26.64;35.91;100442.88;5057244;28;48130;-66
2021/08/04 11:11:57;;;;;;;;;2.33;2.33;;;;;26.64;35.27;100435.59;5074913;28;45361;-67
2021/08/04 11:14:47;;;;;;;;;3.33;2.33;;;;;26.63;35.94;100438.41;5075021;28;45464;-67
2021/08/04 11:17:18;;;;;;;;;4.00;4.00;;;;;26.62;35.80;100431.19;5028606;28;45517;-66
2021/08/04 11:19:56;;;;;;;;;3.67;3.67;;;;;26.61;35.74;100427.59;5074394;28;46289;-66
2021/08/04 11:22:22;;;;;;;;;3.00;3.00;;;;;26.61;35.56;100430.31;5074893;28;45440;-65
2021/08/04 11:24:55;;;;;;;;;3.00;2.33;;;;;26.62;35.81;100439.38;5074438;28;45415;-66
2021/08/04 11:27:25;;;;;;;;;3.33;2.33;;;;;26.62;35.19;100439.38;5074712;28;45440;-64